createdAt,value
2016-12-17T00:00:08.859Z,5
2016-12-17T00:01:43.287Z,4.98
2016-12-17T00:03:18.166Z,5.02
2016-12-17T00:04:48.450Z,5.07
2016-12-17T00:06:03.337Z,5.14
2016-12-17T00:07:36.793Z,5.2
2016-12-17T00:09:38.737Z,5.25
2016-12-17T00:11:13.875Z,5.3
2016-12-17T00:12:48.078Z,5.3
2016-12-17T00:14:21.536Z,5.32
2016-12-17T00:15:54.952Z,5.31
2016-12-17T00:17:29.300Z,5.34
2016-12-17T00:19:22.307Z,5.38
2016-12-17T00:21:23.145Z,5.41
2016-12-17T00:22:38.238Z,5.41
2016-12-17T00:24:12.541Z,5.38
2016-12-17T00:26:06.843Z,5.34
2016-12-17T00:27:41.000Z,5.32
2016-12-17T00:29:14.932Z,5.31
2016-12-17T00:30:48.454Z,5.32
2016-12-17T00:32:22.122Z,5.33
2016-12-17T00:33:56.126Z,5.37
2016-12-17T00:35:30.329Z,5.37
2016-12-17T00:37:05.108Z,5.39
2016-12-17T00:38:38.757Z,5.36
2016-12-17T00:40:14.116Z,5.35
2016-12-17T00:41:44.895Z,5.32
2016-12-17T00:43:48.252Z,5.3
2016-12-17T00:45:22.632Z,5.31
2016-12-17T00:46:56.209Z,5.34
2016-12-17T00:48:29.900Z,5.38
2016-12-17T00:49:58.541Z,5.41
2016-12-17T00:51:32.377Z,5.44
2016-12-17T00:53:07.268Z,5.5
2016-12-17T00:54:41.030Z,5.52
2016-12-17T00:56:14.290Z,5.51
2016-12-17T00:57:48.883Z,5.5
2016-12-17T00:59:23.137Z,5.49
2016-12-17T01:01:16.265Z,5.47
2016-12-17T01:02:49.647Z,5.44
2016-12-17T01:04:22.976Z,5.4
2016-12-17T01:05:56.544Z,5.35
2016-12-17T01:07:30.520Z,5.34
2016-12-17T01:09:03.803Z,5.31
2016-12-17T01:10:37.582Z,5.28
2016-12-17T01:12:11.791Z,5.25
2016-12-17T01:13:45.451Z,5.26
2016-12-17T01:15:14.695Z,5.25
2016-12-17T01:16:48.612Z,5.27
2016-12-17T01:18:22.317Z,5.3
2016-12-17T01:19:55.948Z,5.33
2016-12-17T01:21:29.802Z,5.33
2016-12-17T01:23:03.191Z,5.34
2016-12-17T01:24:36.923Z,5.32
2016-12-17T01:26:10.632Z,5.33
2016-12-17T01:27:43.922Z,5.36
2016-12-17T01:31:50.010Z,5.47
2016-12-17T01:33:23.292Z,5.48
2016-12-17T01:34:56.813Z,5.5
2016-12-17T01:36:30.667Z,5.49
2016-12-17T01:38:04.446Z,5.48
2016-12-17T01:39:38.306Z,5.46
2016-12-17T01:41:12.014Z,5.45
2016-12-17T01:42:45.314Z,5.42
2016-12-17T01:44:19.525Z,5.36
2016-12-17T01:45:53.520Z,5.29
2016-12-17T01:47:26.837Z,5.19
2016-12-17T01:49:21.192Z,5.1
2016-12-17T01:50:54.795Z,4.97
2016-12-17T01:52:28.628Z,4.93
2016-12-17T01:54:03.063Z,4.92
2016-12-17T01:55:37.198Z,4.91
2016-12-17T01:57:11.142Z,4.92
2016-12-17T01:58:44.883Z,4.9
2016-12-17T02:00:18.312Z,4.88
2016-12-17T02:01:52.100Z,4.85
2016-12-17T02:03:26.705Z,4.84
2016-12-17T02:05:19.976Z,4.83
2016-12-17T02:06:53.999Z,4.81
2016-12-17T02:08:27.255Z,4.83
2016-12-17T02:10:01.571Z,4.87
2016-12-17T02:11:35.223Z,4.91
2016-12-17T02:13:08.562Z,4.94
2016-12-17T02:14:41.838Z,4.99
2016-12-17T02:16:15.732Z,5.05
2016-12-17T02:17:49.327Z,5.1
2016-12-17T02:19:23.129Z,5.16
2016-12-17T02:20:59.503Z,5.21
2016-12-17T02:22:33.539Z,5.25
2016-12-17T02:24:06.914Z,5.27
2016-12-17T02:25:59.858Z,5.29
2016-12-17T02:27:33.944Z,5.28
2016-12-17T02:29:07.521Z,5.25
2016-12-17T02:30:41.053Z,5.19
2016-12-17T02:32:14.421Z,5.15
2016-12-17T02:33:47.921Z,5.08
2016-12-17T02:35:21.557Z,5.02
2016-12-17T02:36:55.510Z,4.95
2016-12-17T02:38:29.267Z,4.89
2016-12-17T02:40:02.795Z,4.85
2016-12-17T02:41:36.323Z,4.84
2016-12-17T02:43:10.112Z,4.8
2016-12-17T02:44:43.652Z,4.8
2016-12-17T02:46:17.079Z,4.81
2016-12-17T02:47:50.902Z,4.84
2016-12-17T02:49:24.663Z,4.9
2016-12-17T02:50:57.917Z,4.93
2016-12-17T02:52:50.972Z,4.94
2016-12-17T02:54:24.548Z,4.96
2016-12-17T02:55:58.320Z,4.95
2016-12-17T02:57:31.639Z,4.97
2016-12-17T02:59:05.612Z,4.99
2016-12-17T03:00:39.622Z,5
2016-12-17T03:02:13.620Z,4.98
2016-12-17T03:03:48.054Z,5
2016-12-17T03:05:21.706Z,5.03
2016-12-17T03:06:55.190Z,5.06
2016-12-17T03:08:29.200Z,5.07
2016-12-17T03:10:02.672Z,5.09
2016-12-17T03:11:36.956Z,5.09
2016-12-17T03:13:10.229Z,5.09
2016-12-17T03:14:43.641Z,5.07
2016-12-17T03:16:36.716Z,5.06
2016-12-17T03:18:10.252Z,5.09
2016-12-17T03:19:46.699Z,5.11
2016-12-17T03:21:19.959Z,5.11
2016-12-17T03:22:54.065Z,5.13
2016-12-17T03:24:28.010Z,5.13
2016-12-17T03:26:01.597Z,5.12
2016-12-17T03:27:34.947Z,5.1
2016-12-17T03:29:08.599Z,5.04
2016-12-17T03:30:42.186Z,5.01
2016-12-17T03:32:16.223Z,4.98
2016-12-17T03:33:49.849Z,4.97
2016-12-17T03:35:23.374Z,4.99
2016-12-17T03:36:57.166Z,5.01
2016-12-17T03:38:30.486Z,5.02
2016-12-17T03:40:04.105Z,5.05
2016-12-17T03:41:37.397Z,5.1
2016-12-17T03:43:05.950Z,5.13
2016-12-17T03:44:39.969Z,5.16
2016-12-17T03:46:13.321Z,5.19
2016-12-17T03:47:42.385Z,5.18
2016-12-17T03:49:16.086Z,5.15
2016-12-17T03:50:50.033Z,5.11
2016-12-17T03:52:23.678Z,5.11
2016-12-17T03:53:57.289Z,5.14
2016-12-17T03:55:31.311Z,5.15
2016-12-17T03:57:04.698Z,5.14
2016-12-17T03:58:35.941Z,5.12
2016-12-17T04:00:09.949Z,5.11
2016-12-17T04:01:44.071Z,5.08
2016-12-17T04:03:17.781Z,5.05
2016-12-17T04:04:51.388Z,5.03
2016-12-17T04:06:25.108Z,5.06
2016-12-17T04:07:59.060Z,5.09
2016-12-17T04:09:32.761Z,5.11
2016-12-17T04:11:06.112Z,5.12
2016-12-17T04:12:59.226Z,5.09
2016-12-17T04:14:33.241Z,5.08
2016-12-17T04:16:06.492Z,5.09
2016-12-17T04:17:40.253Z,5.11
2016-12-17T04:19:13.871Z,5.13
2016-12-17T04:20:48.783Z,5.15
2016-12-17T04:22:22.042Z,5.13
2016-12-17T04:23:55.392Z,5.13
2016-12-17T04:25:28.954Z,5.1
2016-12-17T04:27:03.072Z,5.07
2016-12-17T04:28:36.915Z,5.03
2016-12-17T04:30:10.184Z,5.02
2016-12-17T04:31:43.488Z,5.03
2016-12-17T04:33:17.054Z,5.02
2016-12-17T04:34:50.669Z,4.98
2016-12-17T04:36:24.615Z,4.93
2016-12-17T04:37:57.887Z,4.93
2016-12-17T04:39:31.396Z,4.96
2016-12-17T04:41:04.745Z,5.01
2016-12-17T04:42:57.751Z,5.05
2016-12-17T04:44:31.506Z,5.09
2016-12-17T04:46:05.105Z,5.13
2016-12-17T04:47:39.042Z,5.16
2016-12-17T04:49:12.646Z,5.19
2016-12-17T04:50:47.073Z,5.22
2016-12-17T04:52:21.071Z,5.24
2016-12-17T04:53:54.523Z,5.27
2016-12-17T04:55:27.818Z,5.26
2016-12-17T04:57:01.172Z,5.25
2016-12-17T04:58:35.222Z,5.19
2016-12-17T05:00:08.520Z,5.16
2016-12-17T05:01:41.899Z,5.15
2016-12-17T05:03:15.185Z,5.16
2016-12-17T05:04:49.283Z,5.18
2016-12-17T05:06:22.857Z,5.2
2016-12-17T05:07:56.885Z,5.23
2016-12-17T05:09:30.690Z,5.26
2016-12-17T05:11:04.419Z,5.28
2016-12-17T05:12:37.671Z,5.28
2016-12-17T05:14:11.121Z,5.27
2016-12-17T05:15:44.849Z,5.25
2016-12-17T05:17:19.186Z,5.21
2016-12-17T05:18:52.696Z,5.18
2016-12-17T05:20:26.090Z,5.17
2016-12-17T05:21:59.444Z,5.13
2016-12-17T05:23:33.623Z,5.07
2016-12-17T05:25:06.906Z,5.04
2016-12-17T05:26:59.965Z,5.03
2016-12-17T05:28:34.139Z,5
2016-12-17T05:30:07.865Z,4.96
2016-12-17T05:31:41.305Z,4.93
2016-12-17T05:33:15.015Z,4.89
2016-12-17T05:34:48.557Z,4.86
2016-12-17T05:36:25.323Z,4.86
2016-12-17T05:37:59.011Z,4.87
2016-12-17T05:39:32.652Z,4.87
2016-12-17T05:41:06.331Z,4.88
2016-12-17T05:42:39.851Z,4.9
2016-12-17T05:44:29.807Z,4.91
2016-12-17T05:45:43.895Z,4.94
2016-12-17T05:47:17.268Z,4.97
2016-12-17T05:48:51.209Z,5.02
2016-12-17T05:50:25.214Z,5.06
2016-12-17T05:52:18.039Z,5.07
2016-12-17T05:54:19.577Z,5.08
2016-12-17T05:55:34.252Z,5.08
2016-12-17T05:57:28.241Z,5.05
2016-12-17T05:59:01.534Z,4.99
2016-12-17T06:00:35.018Z,4.94
2016-12-17T06:02:08.727Z,4.92
2016-12-17T06:03:42.324Z,4.89
2016-12-17T06:05:15.941Z,4.85
2016-12-17T06:06:49.424Z,4.78
2016-12-17T06:08:23.133Z,4.71
2016-12-17T06:09:56.633Z,4.67
2016-12-17T06:11:30.390Z,4.66
2016-12-17T06:13:04.146Z,4.66
2016-12-17T06:14:38.127Z,4.66
2016-12-17T06:16:11.836Z,4.7
2016-12-17T06:17:45.102Z,4.72
2016-12-17T06:19:19.141Z,4.72
2016-12-17T06:20:52.952Z,4.72
2016-12-17T06:22:26.613Z,4.68
2016-12-17T06:23:54.697Z,4.65
2016-12-17T06:25:28.005Z,4.62
2016-12-17T06:27:01.673Z,4.62
2016-12-17T06:28:35.345Z,4.64
2016-12-17T06:30:08.643Z,4.67
2016-12-17T06:31:41.933Z,4.65
2016-12-17T06:33:16.303Z,4.65
2016-12-17T06:34:49.810Z,4.66
2016-12-17T06:36:23.499Z,4.7
2016-12-17T06:38:16.370Z,4.71
2016-12-17T06:39:49.880Z,4.7
2016-12-17T06:41:23.472Z,4.71
2016-12-17T06:42:57.165Z,4.7
2016-12-17T06:44:30.939Z,4.7
2016-12-17T06:46:04.503Z,4.71
2016-12-17T06:47:38.610Z,4.75
2016-12-17T06:49:12.278Z,4.78
2016-12-17T06:50:46.525Z,4.78
2016-12-17T06:52:15.049Z,4.75
2016-12-17T06:53:48.605Z,4.72
2016-12-17T06:55:21.947Z,4.69
2016-12-17T06:56:55.554Z,4.67
2016-12-17T06:58:28.877Z,4.67
2016-12-17T07:00:03.288Z,4.66
2016-12-17T07:01:36.552Z,4.65
2016-12-17T07:03:10.105Z,4.61
2016-12-17T07:04:43.372Z,4.6
2016-12-17T07:06:17.280Z,4.59
2016-12-17T07:07:50.864Z,4.56
2016-12-17T07:09:24.692Z,4.57
2016-12-17T07:10:58.959Z,4.6
2016-12-17T07:12:32.467Z,4.61
2016-12-17T07:14:59.428Z,4.63
2016-12-17T07:16:33.531Z,4.6
2016-12-17T07:18:07.618Z,4.57
2016-12-17T07:19:40.867Z,4.56
2016-12-17T07:21:14.235Z,4.55
2016-12-17T07:22:48.531Z,4.55
2016-12-17T07:24:22.267Z,4.53
2016-12-17T07:25:56.412Z,4.53
2016-12-17T07:27:29.699Z,4.51
2016-12-17T07:29:03.523Z,4.5
2016-12-17T07:30:58.087Z,4.5
2016-12-17T07:32:35.451Z,4.48
2016-12-17T07:34:09.306Z,4.47
2016-12-17T07:35:46.055Z,4.47
2016-12-17T07:37:20.757Z,4.48
2016-12-17T07:38:54.551Z,4.48
2016-12-17T07:40:29.304Z,4.49
2016-12-17T07:42:23.396Z,4.48
2016-12-17T07:43:57.358Z,4.48
2016-12-17T07:45:30.697Z,4.44
2016-12-17T07:47:04.613Z,4.44
2016-12-17T07:48:40.485Z,4.47
2016-12-17T07:50:17.452Z,4.47
2016-12-17T07:52:10.938Z,4.5
2016-12-17T07:53:46.386Z,4.51
2016-12-17T07:55:48.903Z,4.51
2016-12-17T07:57:22.481Z,4.47
2016-12-17T07:58:55.722Z,4.47
2016-12-17T08:00:25.704Z,4.45
2016-12-17T08:01:40.155Z,4.48
2016-12-17T08:03:33.645Z,4.47
2016-12-17T08:05:08.543Z,4.5
2016-12-17T08:06:42.162Z,4.51
2016-12-17T08:08:15.574Z,4.56
2016-12-17T08:09:49.150Z,4.6
2016-12-17T08:11:22.710Z,4.66
2016-12-17T08:12:57.676Z,4.72
2016-12-17T08:14:31.052Z,4.73
2016-12-17T08:16:04.558Z,4.78
2016-12-17T08:17:38.057Z,4.85
2016-12-17T08:19:11.507Z,4.88
2016-12-17T08:20:45.246Z,4.9
2016-12-17T08:22:18.819Z,4.91
2016-12-17T08:23:52.640Z,4.94
2016-12-17T08:25:20.774Z,4.97
2016-12-17T08:26:49.143Z,5
2016-12-17T08:28:22.695Z,5.06
2016-12-17T08:29:56.500Z,5.15
2016-12-17T08:31:30.115Z,5.21
2016-12-17T08:33:03.646Z,5.27
2016-12-17T08:34:37.723Z,5.31
2016-12-17T08:36:11.709Z,5.34
2016-12-17T08:37:44.956Z,5.34
2016-12-17T08:39:18.615Z,5.35
2016-12-17T08:40:52.246Z,5.38
2016-12-17T08:42:25.758Z,5.4
2016-12-17T08:43:59.019Z,5.42
2016-12-17T08:45:33.203Z,5.44
2016-12-17T08:47:06.484Z,5.49
2016-12-17T08:48:39.976Z,5.56
2016-12-17T08:50:33.816Z,5.64
2016-12-17T08:52:07.363Z,5.68
2016-12-17T08:53:38.484Z,5.7
2016-12-17T08:55:12.092Z,5.71
2016-12-17T08:57:12.900Z,5.73
2016-12-17T08:58:27.781Z,5.76
2016-12-17T09:00:01.575Z,5.77
2016-12-17T09:01:54.529Z,5.76
2016-12-17T09:03:27.907Z,5.71
2016-12-17T09:05:01.782Z,5.71
2016-12-17T09:06:35.419Z,5.69
2016-12-17T09:08:09.551Z,5.69
2016-12-17T09:09:43.271Z,5.71
2016-12-17T09:11:17.386Z,5.76
2016-12-17T09:12:51.360Z,5.78
2016-12-17T09:14:20.214Z,5.78
2016-12-17T09:15:54.171Z,5.76
2016-12-17T09:17:27.711Z,5.76
2016-12-17T09:19:01.616Z,5.79
2016-12-17T09:20:35.652Z,5.79
2016-12-17T09:22:09.727Z,5.8
2016-12-17T09:23:43.955Z,5.8
2016-12-17T09:25:17.317Z,5.82
2016-12-17T09:26:51.228Z,5.83
2016-12-17T09:28:25.117Z,5.88
2016-12-17T09:29:58.822Z,5.92
2016-12-17T09:31:52.220Z,5.96
2016-12-17T09:33:27.249Z,5.97
2016-12-17T09:35:01.055Z,5.96
2016-12-17T09:36:35.040Z,5.97
2016-12-17T09:38:09.315Z,6.02
2016-12-17T09:48:13.174Z,6.27
2016-12-17T09:49:27.432Z,6.28
2016-12-17T09:50:41.930Z,6.32
2016-12-17T09:51:57.593Z,6.34
2016-12-17T09:53:13.484Z,6.35
2016-12-17T09:54:29.865Z,6.33
2016-12-17T09:55:45.609Z,6.33
2016-12-17T09:57:01.138Z,6.33
2016-12-17T09:58:15.534Z,6.33
2016-12-17T09:59:29.636Z,6.37
2016-12-17T10:00:44.239Z,6.43
2016-12-17T10:02:00.645Z,6.48
2016-12-17T10:03:15.410Z,6.52
2016-12-17T10:04:30.549Z,6.55
2016-12-17T10:05:45.182Z,6.56
2016-12-17T10:07:00.499Z,6.54
2016-12-17T10:08:15.324Z,6.51
2016-12-17T10:09:29.572Z,6.51
2016-12-17T10:10:43.725Z,6.47
2016-12-17T10:11:58.233Z,6.45
2016-12-17T10:13:12.815Z,6.39
2016-12-17T10:14:27.567Z,6.33
2016-12-17T10:15:42.027Z,6.3
2016-12-17T10:16:56.470Z,6.29
2016-12-17T10:18:11.036Z,6.28
2016-12-17T10:19:26.941Z,6.28
2016-12-17T10:20:41.387Z,6.3
2016-12-17T10:21:55.937Z,6.34
2016-12-17T10:23:10.238Z,6.37
2016-12-17T10:24:24.589Z,6.43
2016-12-17T10:25:40.516Z,6.44
2016-12-17T10:26:59.809Z,6.48
2016-12-17T10:28:14.463Z,6.49
2016-12-17T10:29:28.652Z,6.49
2016-12-17T10:30:43.672Z,6.51
2016-12-17T10:31:58.844Z,6.51
2016-12-17T10:33:15.283Z,6.51
2016-12-17T10:34:30.052Z,6.52
2016-12-17T10:35:45.016Z,6.53
2016-12-17T10:36:59.282Z,6.54
2016-12-17T10:38:14.728Z,6.54
2016-12-17T10:39:28.970Z,6.54
2016-12-17T10:40:43.366Z,6.54
2016-12-17T10:41:57.879Z,6.54
2016-12-17T10:43:12.560Z,6.56
2016-12-17T10:44:27.876Z,6.55
2016-12-17T10:45:43.698Z,6.56
2016-12-17T10:46:58.443Z,6.57
2016-12-17T10:48:13.386Z,6.59
2016-12-17T10:49:27.748Z,6.62
2016-12-17T10:50:43.340Z,6.62
2016-12-17T10:51:58.891Z,6.62
2016-12-17T10:53:14.051Z,6.63
2016-12-17T10:54:29.057Z,6.65
2016-12-17T10:55:44.825Z,6.67
2016-12-17T10:57:00.020Z,6.67
2016-12-17T10:58:15.214Z,6.68
2016-12-17T10:59:30.039Z,6.69
2016-12-17T11:00:45.820Z,6.69
2016-12-17T11:02:00.569Z,6.71
2016-12-17T11:03:15.614Z,6.8
2016-12-17T11:04:29.905Z,6.9
2016-12-17T11:05:44.204Z,7
2016-12-17T11:06:59.157Z,7.07
2016-12-17T11:08:13.784Z,7.11
2016-12-17T11:09:28.501Z,7.14
2016-12-17T11:10:43.488Z,7.16
2016-12-17T11:11:57.665Z,7.17
2016-12-17T11:13:12.154Z,7.16
2016-12-17T11:14:26.268Z,7.15
2016-12-17T11:15:41.038Z,7.15
2016-12-17T11:16:55.303Z,7.15
2016-12-17T11:18:09.857Z,7.11
2016-12-17T11:19:24.375Z,7.07
2016-12-17T11:20:53.582Z,7.06
2016-12-17T11:22:08.250Z,7.08
2016-12-17T11:23:22.356Z,7.11
2016-12-17T11:24:36.447Z,7.16
2016-12-17T11:25:50.599Z,7.18
2016-12-17T11:27:05.367Z,7.24
2016-12-17T11:28:19.705Z,7.27
2016-12-17T11:29:34.031Z,7.3
2016-12-17T11:30:48.539Z,7.32
2016-12-17T11:32:02.945Z,7.36
2016-12-17T11:33:17.255Z,7.41
2016-12-17T11:34:31.636Z,7.46
2016-12-17T11:35:45.829Z,7.52
2016-12-17T11:37:00.832Z,7.57
2016-12-17T11:38:17.146Z,7.62
2016-12-17T11:39:31.364Z,7.67
2016-12-17T11:40:46.416Z,7.68
2016-12-17T11:42:01.074Z,7.72
2016-12-17T11:43:15.674Z,7.76
2016-12-17T11:44:32.169Z,7.82
2016-12-17T11:45:47.348Z,7.91
2016-12-17T11:48:34.185Z,8.18
2016-12-17T11:49:48.629Z,8.28
2016-12-17T11:51:03.052Z,8.41
2016-12-17T11:52:17.365Z,8.5
2016-12-17T11:53:31.611Z,8.6
2016-12-17T11:54:45.835Z,8.68
2016-12-17T11:56:00.534Z,8.74
2016-12-17T11:57:14.666Z,8.76
2016-12-17T11:58:29.286Z,8.75
2016-12-17T11:59:43.341Z,8.7
2016-12-17T12:00:57.608Z,8.64
2016-12-17T12:02:12.085Z,8.59
2016-12-17T12:03:26.410Z,8.55
2016-12-17T12:04:41.193Z,8.53
2016-12-17T12:05:55.731Z,8.5
2016-12-17T12:07:10.166Z,8.48
2016-12-17T12:08:24.512Z,8.45
2016-12-17T12:09:38.558Z,8.42
2016-12-17T12:10:53.433Z,8.41
2016-12-17T12:12:07.570Z,8.37
2016-12-17T12:13:22.117Z,8.35
2016-12-17T12:14:36.701Z,8.32
2016-12-17T12:15:50.823Z,8.27
2016-12-17T12:17:05.706Z,8.23
2016-12-17T12:18:20.082Z,8.17
2016-12-17T12:19:34.268Z,8.1
2016-12-17T12:20:48.636Z,8.03
2016-12-17T12:22:02.788Z,7.97
2016-12-17T12:23:17.155Z,7.91
2016-12-17T12:24:31.580Z,7.84
2016-12-17T12:25:45.658Z,7.74
2016-12-17T12:27:00.359Z,7.65
2016-12-17T12:28:14.581Z,7.55
2016-12-17T12:29:28.829Z,7.46
2016-12-17T12:30:43.927Z,7.37
2016-12-17T12:31:58.010Z,7.3
2016-12-17T12:33:12.370Z,7.22
2016-12-17T12:34:26.869Z,7.19
2016-12-17T12:35:41.046Z,7.16
2016-12-17T12:36:55.463Z,7.17
2016-12-17T12:38:09.540Z,7.2
2016-12-17T12:39:23.953Z,7.24
2016-12-17T12:40:38.556Z,7.29
2016-12-17T12:41:52.890Z,7.32
2016-12-17T12:43:08.895Z,7.34
2016-12-17T12:44:22.955Z,7.36
2016-12-17T12:45:37.031Z,7.37
2016-12-17T12:47:06.097Z,7.39
2016-12-17T12:48:20.801Z,7.41
2016-12-17T12:49:35.170Z,7.42
2016-12-17T12:50:49.238Z,7.42
2016-12-17T12:52:03.488Z,7.41
2016-12-17T12:53:17.917Z,7.4
2016-12-17T12:54:32.271Z,7.39
2016-12-17T12:55:46.900Z,7.38
2016-12-17T12:57:01.423Z,7.39
2016-12-17T12:58:16.532Z,7.4
2016-12-17T12:59:32.095Z,7.42
2016-12-17T13:00:47.220Z,7.44
2016-12-17T13:02:04.655Z,7.48
2016-12-17T13:03:18.844Z,7.5
2016-12-17T13:04:33.023Z,7.51
2016-12-17T13:05:47.610Z,7.53
2016-12-17T13:07:02.704Z,7.56
2016-12-17T13:08:19.632Z,7.57
2016-12-17T13:09:35.291Z,7.55
2016-12-17T13:10:49.368Z,7.49
2016-12-17T13:12:03.813Z,7.41
2016-12-17T13:13:18.505Z,7.34
2016-12-17T13:14:33.513Z,7.28
2016-12-17T13:15:48.347Z,7.25
2016-12-17T13:17:17.191Z,7.23
2016-12-17T13:18:32.032Z,7.19
2016-12-17T13:19:46.795Z,7.14
2016-12-17T13:21:01.861Z,7.09
2016-12-17T13:22:16.886Z,7.01
2016-12-17T13:23:32.149Z,6.96
2016-12-17T13:24:46.817Z,6.89
2016-12-17T13:26:00.947Z,6.83
2016-12-17T13:27:29.953Z,6.77
2016-12-17T13:28:44.896Z,6.7
2016-12-17T13:30:00.232Z,6.66
2016-12-17T13:31:15.232Z,6.62
2016-12-17T13:32:30.388Z,6.58
2016-12-17T13:33:59.291Z,6.55
2016-12-17T13:35:14.166Z,6.52
2016-12-17T13:36:29.213Z,6.49
2016-12-17T13:37:45.176Z,6.45
2016-12-17T13:39:00.142Z,6.44
2016-12-17T13:40:15.071Z,6.44
2016-12-17T13:41:31.494Z,6.45
2016-12-17T13:42:47.590Z,6.45
2016-12-17T13:44:01.766Z,6.44
2016-12-17T13:45:16.334Z,6.46
2016-12-17T13:46:30.912Z,6.46
2016-12-17T13:47:45.423Z,6.45
2016-12-17T13:49:00.323Z,6.47
2016-12-17T13:50:15.644Z,6.47
2016-12-17T13:51:30.121Z,6.45
2016-12-17T13:52:45.225Z,6.41
2016-12-17T13:54:01.134Z,6.37
2016-12-17T13:55:15.551Z,6.33
2016-12-17T13:56:29.958Z,6.34
2016-12-17T13:57:46.354Z,6.34
2016-12-17T13:59:01.529Z,6.35
2016-12-17T14:00:16.940Z,6.37
2016-12-17T14:01:32.903Z,6.37
2016-12-17T14:02:47.114Z,6.36
2016-12-17T14:04:01.722Z,6.35
2016-12-17T14:05:16.341Z,6.33
2016-12-17T14:06:31.697Z,6.35
2016-12-17T14:07:46.313Z,6.35
2016-12-17T14:09:01.129Z,6.35
2016-12-17T14:10:19.637Z,6.36
2016-12-17T14:11:36.700Z,6.39
2016-12-17T14:12:53.284Z,6.42
2016-12-17T14:14:10.078Z,6.43
2016-12-17T14:15:26.590Z,6.46
2016-12-17T14:16:42.369Z,6.49
2016-12-17T14:17:58.565Z,6.53
2016-12-17T14:19:15.338Z,6.57
2016-12-17T14:20:33.747Z,6.6
2016-12-17T14:21:48.809Z,6.63
2016-12-17T14:23:05.663Z,6.61
2016-12-17T14:24:21.245Z,6.62
2016-12-17T14:25:36.050Z,6.62
2016-12-17T14:26:50.716Z,6.65
2016-12-17T14:28:05.090Z,6.65
2016-12-17T14:29:19.792Z,6.67
2016-12-17T14:30:35.083Z,6.68
2016-12-17T14:31:49.599Z,6.68
2016-12-17T14:33:03.721Z,6.66
2016-12-17T14:34:17.836Z,6.62
2016-12-17T14:35:31.960Z,6.6
2016-12-17T14:36:46.246Z,6.58
2016-12-17T14:38:00.890Z,6.54
2016-12-17T14:39:14.988Z,6.5
2016-12-17T14:40:29.116Z,6.48
2016-12-17T14:41:43.282Z,6.47
2016-12-17T14:42:57.480Z,6.46
2016-12-17T14:44:12.441Z,6.47
2016-12-17T14:45:27.355Z,6.45
2016-12-17T14:46:41.909Z,6.43
2016-12-17T14:47:56.021Z,6.4
2016-12-17T14:49:10.574Z,6.41
2016-12-17T14:50:25.449Z,6.42
2016-12-17T14:51:40.061Z,6.45
2016-12-17T14:52:54.198Z,6.45
2016-12-17T14:54:08.765Z,6.44
2016-12-17T14:55:23.213Z,6.43
2016-12-17T14:56:37.648Z,6.39
2016-12-17T14:57:52.412Z,6.35
2016-12-17T14:59:06.600Z,6.33
2016-12-17T15:00:20.782Z,6.31
2016-12-17T15:01:35.235Z,6.28
2016-12-17T15:02:49.582Z,6.28
2016-12-17T15:04:03.922Z,6.3
2016-12-17T15:05:18.275Z,6.32
2016-12-17T15:06:32.468Z,6.38
2016-12-17T15:07:47.088Z,6.39
2016-12-17T15:09:01.524Z,6.41
2016-12-17T15:10:15.941Z,6.41
2016-12-17T15:11:30.025Z,6.41
2016-12-17T15:12:44.608Z,6.38
2016-12-17T15:13:58.810Z,6.35
2016-12-17T15:15:13.471Z,6.32
2016-12-17T15:16:27.643Z,6.33
2016-12-17T15:17:43.543Z,6.34
2016-12-17T15:18:57.686Z,6.34
2016-12-17T15:20:11.914Z,6.35
2016-12-17T15:21:26.242Z,6.36
2016-12-17T15:22:40.799Z,6.37
2016-12-17T15:23:55.402Z,6.38
2016-12-17T15:25:09.487Z,6.4
2016-12-17T15:26:23.798Z,6.4
2016-12-17T15:27:38.219Z,6.39
2016-12-17T15:28:52.771Z,6.37
2016-12-17T15:30:06.843Z,6.32
2016-12-17T15:31:21.549Z,6.31
2016-12-17T15:32:36.009Z,6.27
2016-12-17T15:33:50.790Z,6.23
2016-12-17T15:35:04.968Z,6.19
2016-12-17T15:36:19.079Z,6.16
2016-12-17T15:37:36.093Z,6.16
2016-12-17T15:38:50.506Z,6.15
2016-12-17T15:40:04.865Z,6.19
2016-12-17T15:41:18.939Z,6.21
2016-12-17T15:42:33.084Z,6.22
2016-12-17T15:43:47.783Z,6.22
2016-12-17T15:45:02.006Z,6.23
2016-12-17T15:46:16.402Z,6.23
2016-12-17T15:47:30.535Z,6.24
2016-12-17T15:48:59.662Z,6.24
2016-12-17T15:50:13.748Z,6.23
2016-12-17T15:51:28.175Z,6.23
2016-12-17T15:52:42.390Z,6.25
2016-12-17T15:53:56.798Z,6.24
2016-12-17T15:55:10.931Z,6.23
2016-12-17T15:57:54.822Z,6.18
2016-12-17T15:59:09.285Z,6.17
2016-12-17T16:00:23.785Z,6.19
2016-12-17T16:01:38.525Z,6.2
2016-12-17T16:02:52.642Z,6.21
2016-12-17T16:04:07.340Z,6.21
2016-12-17T16:05:21.813Z,6.2
2016-12-17T16:06:36.851Z,6.19
2016-12-17T16:07:51.399Z,6.19
2016-12-17T16:09:06.043Z,6.18
2016-12-17T16:10:20.358Z,6.21
2016-12-17T16:11:49.259Z,6.23
2016-12-17T16:13:03.750Z,6.23
2016-12-17T16:14:17.950Z,6.24
2016-12-17T16:15:33.291Z,6.26
2016-12-17T16:16:47.411Z,6.27
2016-12-17T16:18:01.842Z,6.29
2016-12-17T16:19:16.030Z,6.33
2016-12-17T16:20:30.753Z,6.37
2016-12-17T16:21:45.483Z,6.39
2016-12-17T16:23:00.697Z,6.43
2016-12-17T16:24:15.253Z,6.45
2016-12-17T16:25:33.615Z,6.47
2016-12-17T16:26:55.041Z,6.52
2016-12-17T16:28:09.592Z,6.52
2016-12-17T16:29:24.099Z,6.55
2016-12-17T16:30:38.512Z,6.57
2016-12-17T16:31:52.955Z,6.58
2016-12-17T16:33:36.621Z,6.6
2016-12-17T16:34:51.066Z,6.63
2016-12-17T16:36:05.744Z,6.66
2016-12-17T16:37:20.206Z,6.68
2016-12-17T16:38:34.615Z,6.68
2016-12-17T16:39:48.809Z,6.69
2016-12-17T16:41:03.315Z,6.72
2016-12-17T16:42:18.099Z,6.74
2016-12-17T16:43:32.544Z,6.74
2016-12-17T16:44:47.015Z,6.73
2016-12-17T16:46:01.512Z,6.74
2016-12-17T16:47:15.670Z,6.72
2016-12-17T16:48:30.814Z,6.69
2016-12-17T16:49:44.923Z,6.67
2016-12-17T16:50:59.042Z,6.63
2016-12-17T16:52:14.492Z,6.61
2016-12-17T16:53:28.878Z,6.59
2016-12-17T16:54:43.577Z,6.58
2016-12-17T16:56:00.173Z,6.56
2016-12-17T16:57:14.363Z,6.59
2016-12-17T16:58:28.496Z,6.61
2016-12-17T16:59:42.893Z,6.61
2016-12-17T17:00:57.872Z,6.65
2016-12-17T17:02:12.098Z,6.66
2016-12-17T17:03:26.520Z,6.66
2016-12-17T17:04:40.971Z,6.64
2016-12-17T17:05:55.131Z,6.63
2016-12-17T17:07:09.900Z,6.61
2016-12-17T17:08:23.982Z,6.59
2016-12-17T17:09:38.370Z,6.6
2016-12-17T17:10:52.498Z,6.62
2016-12-17T17:12:22.032Z,6.61
2016-12-17T17:15:06.280Z,6.56
2016-12-17T17:16:20.387Z,6.51
2016-12-17T17:17:34.556Z,6.46
2016-12-17T17:18:48.936Z,6.39
2016-12-17T17:20:03.326Z,6.34
2016-12-17T17:21:17.412Z,6.31
2016-12-17T17:22:31.982Z,6.29
2016-12-17T17:23:46.393Z,6.26
2016-12-17T17:25:01.034Z,6.24
2016-12-17T17:26:15.445Z,6.21
2016-12-17T17:27:30.256Z,6.19
2016-12-17T17:28:44.519Z,6.18
2016-12-17T17:29:59.351Z,6.21
2016-12-17T17:31:13.773Z,6.24
2016-12-17T17:32:28.226Z,6.27
2016-12-17T17:33:42.790Z,6.28
2016-12-17T17:34:56.987Z,6.3
2016-12-17T17:36:11.242Z,6.32
2016-12-17T17:37:25.893Z,6.31
2016-12-17T17:38:40.792Z,6.29
2016-12-17T17:39:56.084Z,6.28
2016-12-17T17:41:15.339Z,6.25
2016-12-17T17:42:33.185Z,6.24
2016-12-17T17:43:48.044Z,6.22
2016-12-17T17:45:02.565Z,6.2
2016-12-17T17:46:17.696Z,6.19
2016-12-17T17:47:32.813Z,6.19
2016-12-17T17:48:50.016Z,6.18
2016-12-17T17:50:08.194Z,6.2
2016-12-17T17:51:28.272Z,6.22
2016-12-17T17:54:36.179Z,6.29
2016-12-17T17:55:57.958Z,6.34
2016-12-17T17:57:17.939Z,6.39
2016-12-17T17:58:34.416Z,6.43
2016-12-17T17:59:53.558Z,6.44
2016-12-17T18:01:12.703Z,6.45
2016-12-17T18:02:29.599Z,6.45
2016-12-17T18:03:47.272Z,6.44
2016-12-17T18:05:05.943Z,6.42
2016-12-17T18:06:23.506Z,6.41
2016-12-17T18:07:40.748Z,6.36
2016-12-17T18:09:00.215Z,6.35
2016-12-17T18:10:16.243Z,6.35
2016-12-17T18:11:36.548Z,6.37
2016-12-17T18:12:53.642Z,6.38
2016-12-17T18:14:10.476Z,6.4
2016-12-17T18:15:31.959Z,6.43
2016-12-17T18:16:48.327Z,6.46
2016-12-17T18:18:07.307Z,6.48
2016-12-17T18:19:24.152Z,6.5
2016-12-17T18:20:43.467Z,6.51
2016-12-17T18:22:00.167Z,6.53
2016-12-17T18:23:17.448Z,6.55
2016-12-17T18:24:32.934Z,6.55
2016-12-17T18:25:49.114Z,6.56
2016-12-17T18:27:05.684Z,6.58
2016-12-17T18:28:23.569Z,6.58
2016-12-17T18:29:39.757Z,6.6
2016-12-17T18:30:55.108Z,6.62
2016-12-17T18:32:11.456Z,6.64
2016-12-17T18:33:28.292Z,6.67
2016-12-17T18:34:44.173Z,6.69
2016-12-17T18:35:59.707Z,6.71
2016-12-17T18:37:14.886Z,6.72
2016-12-17T18:38:31.684Z,6.72
2016-12-17T18:40:02.180Z,6.71
2016-12-17T18:41:19.516Z,6.71
2016-12-17T18:42:35.550Z,6.71
2016-12-17T18:43:50.860Z,6.71
2016-12-17T18:45:05.245Z,6.72
2016-12-17T18:46:19.549Z,6.73
2016-12-17T18:47:34.461Z,6.73
2016-12-17T18:48:49.496Z,6.72
2016-12-17T18:50:18.935Z,6.7
2016-12-17T18:51:33.265Z,6.65
2016-12-17T18:52:48.011Z,6.62
2016-12-17T18:54:02.620Z,6.58
2016-12-17T18:55:17.333Z,6.55
2016-12-17T18:56:31.800Z,6.53
2016-12-17T18:57:46.092Z,6.52
2016-12-17T18:59:00.973Z,6.51
2016-12-17T19:00:16.085Z,6.47
2016-12-17T19:01:30.630Z,6.46
2016-12-17T19:02:45.257Z,6.46
2016-12-17T19:04:01.836Z,6.48